createdAt,value
2023-04-17T00:00:38.346Z,8.2
2023-04-17T00:01:54.000Z,8.3
2023-04-17T00:03:10.000Z,8.2
2023-04-17T00:04:26.000Z,8.2
2023-04-17T00:05:43.000Z,8.2
2023-04-17T00:06:59.000Z,8.2
2023-04-17T00:07:57.513Z,8.2
2023-04-17T00:09:31.703Z,8.2
2023-04-17T00:10:47.916Z,8.2
2023-04-17T00:12:04.000Z,8.2
2023-04-17T00:13:20.298Z,8.2
2023-04-17T00:14:18.493Z,8.2
2023-04-17T00:15:33.703Z,8.2
2023-04-17T00:16:49.899Z,8.2
2023-04-17T00:18:24.094Z,8.2
2023-04-17T00:19:40.291Z,8.2
2023-04-17T00:20:38.486Z,8.2
2023-04-17T00:22:12.683Z,8.2
2023-04-17T00:23:27.900Z,8.2
2023-04-17T00:24:43.000Z,8.2
2023-04-17T00:25:41.310Z,8.2
2023-04-17T00:27:14.533Z,8.1
2023-04-17T00:28:56.000Z,8.1
2023-04-17T00:29:46.000Z,8.1
2023-04-17T00:31:03.000Z,8.1
2023-04-17T00:32:19.000Z,8.1
2023-04-17T00:33:35.000Z,8.1
2023-04-17T00:34:50.000Z,8.1
2023-04-17T00:35:48.918Z,8.1
2023-04-17T00:37:23.115Z,8.1
2023-04-17T00:38:21.309Z,8.1
2023-04-17T00:39:37.505Z,8.1
2023-04-17T00:40:53.700Z,8.1
2023-04-17T00:42:27.000Z,8.1
2023-04-17T00:43:44.000Z,8.1
2023-04-17T00:45:00.000Z,8.1
2023-04-17T00:45:58.483Z,8.1
2023-04-17T00:47:32.688Z,8.1
2023-04-17T00:48:30.874Z,8
2023-04-17T00:50:05.000Z,8
2023-04-17T00:51:21.267Z,8
2023-04-17T00:52:36.483Z,8
2023-04-17T00:53:51.000Z,8
2023-04-17T00:55:07.895Z,8
2023-04-17T00:56:24.000Z,8
2023-04-17T00:57:40.000Z,8
2023-04-17T00:58:38.481Z,8
2023-04-17T00:59:53.694Z,8
2023-04-17T01:01:09.889Z,8
2023-04-17T01:02:44.084Z,8
2023-04-17T01:04:00.000Z,8
2023-04-17T01:05:16.475Z,8
2023-04-17T01:06:32.666Z,8
2023-04-17T01:07:48.864Z,8
2023-04-17T01:09:05.000Z,8
2023-04-17T01:10:21.256Z,8
2023-04-17T01:12:03.000Z,7.9
2023-04-17T01:12:53.000Z,8
2023-04-17T01:13:51.841Z,7.9
2023-04-17T01:15:26.036Z,7.9
2023-04-17T01:16:42.225Z,7.9
2023-04-17T01:17:57.000Z,7.9
2023-04-17T01:19:13.632Z,7.9
2023-04-17T01:20:28.000Z,7.9
2023-04-17T01:21:45.056Z,7.9
2023-04-17T01:23:01.267Z,7.9
2023-04-17T01:24:16.480Z,7.9
2023-04-17T01:25:14.670Z,7.9
2023-04-17T01:26:29.892Z,7.9
2023-04-17T01:28:03.104Z,7.8
2023-04-17T01:29:01.299Z,7.8
2023-04-17T01:30:35.513Z,7.8
2023-04-17T01:31:33.690Z,7.8
2023-04-17T01:33:07.889Z,7.8
2023-04-17T01:34:24.000Z,7.8
2023-04-17T01:35:40.000Z,7.8
2023-04-17T01:36:56.468Z,7.8
2023-04-17T01:38:12.000Z,7.8
2023-04-17T01:39:10.863Z,7.8
2023-04-17T01:40:45.060Z,7.8
2023-04-17T01:42:01.254Z,7.8
2023-04-17T01:43:17.000Z,7.8
2023-04-17T01:44:33.651Z,7.8
2023-04-17T01:45:30.865Z,7.8
2023-04-17T01:47:05.000Z,7.8
2023-04-17T01:48:21.000Z,7.7
2023-04-17T01:49:19.450Z,7.8
2023-04-17T01:50:53.000Z,7.8
2023-04-17T01:52:09.843Z,7.8
2023-04-17T01:53:25.078Z,7.8
2023-04-17T01:54:40.275Z,7.7
2023-04-17T01:55:38.471Z,7.8
2023-04-17T01:57:12.662Z,7.7
2023-04-17T01:58:28.861Z,7.7
2023-04-17T01:59:45.000Z,7.7
2023-04-17T02:01:01.251Z,7.7
2023-04-17T02:01:59.446Z,7.7
2023-04-17T02:03:33.643Z,7.7
2023-04-17T02:04:49.836Z,7.7
2023-04-17T02:06:06.032Z,7.7
2023-04-17T02:07:04.226Z,7.6
2023-04-17T02:08:38.421Z,7.6
2023-04-17T02:09:36.617Z,7.6
2023-04-17T02:11:10.000Z,7.5
2023-04-17T02:12:27.000Z,7.5
2023-04-17T02:13:43.000Z,7.5
2023-04-17T02:14:41.399Z,7.5
2023-04-17T02:15:57.595Z,7.5
2023-04-17T02:17:13.790Z,7.5
2023-04-17T02:18:47.000Z,7.5
2023-04-17T02:19:46.181Z,7.5
2023-04-17T02:21:19.000Z,7.5
2023-04-17T02:22:17.599Z,7.5
2023-04-17T02:23:51.794Z,7.5
2023-04-17T02:25:07.000Z,7.5
2023-04-17T02:26:24.000Z,7.4
2023-04-17T02:27:40.000Z,7.4
2023-04-17T02:28:55.599Z,7.4
2023-04-17T02:29:53.788Z,7.4
2023-04-17T02:31:27.993Z,7.4
2023-04-17T02:32:44.175Z,7.4
2023-04-17T02:34:00.383Z,7.3
2023-04-17T02:35:16.569Z,7.3
2023-04-17T02:36:32.000Z,7.3
2023-04-17T02:37:48.000Z,7.4
2023-04-17T02:38:47.157Z,7.3
2023-04-17T02:40:47.000Z,7.3
2023-04-17T02:41:37.000Z,7.3
2023-04-17T02:42:35.742Z,7.3
2023-04-17T02:44:09.000Z,7.3
2023-04-17T02:45:26.132Z,7.3
2023-04-17T02:46:41.350Z,7.3
2023-04-17T02:47:39.541Z,7.3
2023-04-17T02:49:12.000Z,7.3
2023-04-17T02:50:28.000Z,7.2
2023-04-17T02:51:45.154Z,7.2
2023-04-17T02:53:01.346Z,7.2
2023-04-17T02:54:16.578Z,7.2
2023-04-17T02:55:31.779Z,7.2
2023-04-17T02:56:47.013Z,7.2
2023-04-17T02:57:44.217Z,7.2
2023-04-17T02:59:17.000Z,7.2
2023-04-17T03:00:15.635Z,7.2
2023-04-17T03:01:48.851Z,7.1
2023-04-17T03:03:05.042Z,7.1
2023-04-17T03:04:21.000Z,7.1
2023-04-17T03:05:19.433Z,7.1
2023-04-17T03:06:53.629Z,7.1
2023-04-17T03:08:35.000Z,7.1
2023-04-17T03:09:26.000Z,7.1
2023-04-17T03:10:24.217Z,7.1
2023-04-17T03:11:40.412Z,7.1
2023-04-17T03:12:56.607Z,7.1
2023-04-17T03:14:30.000Z,7.1
2023-04-17T03:15:47.000Z,7.1
2023-04-17T03:17:03.000Z,7.1
2023-04-17T03:18:19.000Z,7.1
2023-04-17T03:19:35.705Z,7.1
2023-04-17T03:20:51.903Z,7.1
2023-04-17T03:22:08.000Z,7
2023-04-17T03:23:24.291Z,7
2023-04-17T03:24:22.487Z,7
2023-04-17T03:25:38.682Z,7
2023-04-17T03:27:39.000Z,7
2023-04-17T03:28:29.000Z,7
2023-04-17T03:29:45.000Z,7
2023-04-17T03:30:43.611Z,7
2023-04-17T03:31:58.823Z,7
2023-04-17T03:33:15.018Z,7
2023-04-17T03:34:49.214Z,7
2023-04-17T03:36:05.000Z,7
2023-04-17T03:37:21.000Z,7
2023-04-17T03:38:37.813Z,7
2023-04-17T03:39:54.006Z,7
2023-04-17T03:41:10.000Z,7
2023-04-17T03:42:26.389Z,6.9
2023-04-17T03:43:42.000Z,6.9
2023-04-17T03:44:58.000Z,6.9
2023-04-17T03:45:56.972Z,6.9
2023-04-17T03:47:57.000Z,6.9
2023-04-17T03:48:47.372Z,6.9
2023-04-17T03:50:02.000Z,6.9
2023-04-17T03:51:00.769Z,6.9
2023-04-17T03:52:34.979Z,6.9
2023-04-17T03:53:50.186Z,6.9
2023-04-17T03:55:06.000Z,6.9
2023-04-17T03:56:22.576Z,6.9
2023-04-17T03:57:37.798Z,6.9
2023-04-17T03:58:53.992Z,6.9
2023-04-17T04:00:10.000Z,6.9
2023-04-17T04:01:26.396Z,6.8
2023-04-17T04:03:07.000Z,6.9
2023-04-17T04:03:39.793Z,6.8
2023-04-17T04:05:13.990Z,6.8
2023-04-17T04:06:30.000Z,6.8
2023-04-17T04:07:46.379Z,6.8
2023-04-17T04:08:44.574Z,6.9
2023-04-17T04:10:44.000Z,6.8
2023-04-17T04:11:16.965Z,6.8
2023-04-17T04:12:51.000Z,6.8
2023-04-17T04:13:49.356Z,6.8
2023-04-17T04:15:23.000Z,6.8
2023-04-17T04:16:21.747Z,6.8
2023-04-17T04:17:55.956Z,6.8
2023-04-17T04:19:12.258Z,6.8
2023-04-17T04:20:28.000Z,6.8
2023-04-17T04:21:44.000Z,6.8
2023-04-17T04:23:00.000Z,6.8
2023-04-17T04:24:17.045Z,6.8
2023-04-17T04:25:32.000Z,6.8
2023-04-17T04:26:48.463Z,6.8
2023-04-17T04:28:03.000Z,6.8
2023-04-17T04:29:19.873Z,6.8
2023-04-17T04:30:36.071Z,6.8
2023-04-17T04:31:52.000Z,6.8
2023-04-17T04:33:08.477Z,6.8
2023-04-17T04:34:05.683Z,6.8
2023-04-17T04:35:38.000Z,6.8
2023-04-17T04:36:37.089Z,6.8
2023-04-17T04:38:11.000Z,6.7
2023-04-17T04:39:27.491Z,6.7
2023-04-17T04:40:43.693Z,6.7
2023-04-17T04:41:41.871Z,6.7
2023-04-17T04:43:16.067Z,6.7
2023-04-17T04:44:32.000Z,6.7
2023-04-17T04:45:48.000Z,6.7
2023-04-17T04:46:46.654Z,6.7
2023-04-17T04:48:20.000Z,6.7
2023-04-17T04:49:37.046Z,6.7
2023-04-17T04:50:53.000Z,6.7
2023-04-17T04:51:51.435Z,6.7
2023-04-17T04:53:24.662Z,6.7
2023-04-17T04:54:40.000Z,6.7
2023-04-17T04:55:39.034Z,6.7
2023-04-17T04:57:13.227Z,6.7
2023-04-17T04:58:29.421Z,6.7
2023-04-17T04:59:27.614Z,6.7
2023-04-17T05:01:00.000Z,6.7
2023-04-17T05:01:59.026Z,6.7
2023-04-17T05:03:33.222Z,6.7
2023-04-17T05:04:48.000Z,6.7
2023-04-17T05:06:04.000Z,6.7
2023-04-17T05:07:20.827Z,6.8
2023-04-17T05:08:36.000Z,6.8
2023-04-17T05:09:52.227Z,6.7
2023-04-17T05:11:08.418Z,6.8
2023-04-17T05:12:06.614Z,6.8
2023-04-17T05:13:40.819Z,6.7
2023-04-17T05:14:57.000Z,6.7
2023-04-17T05:16:13.000Z,6.8
2023-04-17T05:17:29.386Z,6.8
2023-04-17T05:18:45.582Z,6.8
2023-04-17T05:20:27.000Z,6.8
2023-04-17T05:21:17.000Z,6.7
2023-04-17T05:22:34.000Z,6.8
2023-04-17T05:23:50.000Z,6.7
2023-04-17T05:24:48.544Z,6.7
2023-04-17T05:26:22.000Z,6.7
2023-04-17T05:27:19.946Z,6.7
2023-04-17T05:28:54.000Z,6.7
2023-04-17T05:30:10.000Z,6.7
2023-04-17T05:31:26.000Z,6.7
2023-04-17T05:32:24.718Z,6.7
2023-04-17T05:34:25.000Z,6.7
2023-04-17T05:35:15.000Z,6.7
2023-04-17T05:36:31.000Z,6.7
2023-04-17T05:37:47.000Z,6.7
2023-04-17T05:39:03.000Z,6.7
2023-04-17T05:40:20.000Z,6.7
2023-04-17T05:41:35.237Z,6.7
2023-04-17T05:42:33.427Z,6.6
2023-04-17T05:44:07.000Z,6.6
2023-04-17T05:45:23.000Z,6.6
2023-04-17T05:46:40.000Z,6.6
2023-04-17T05:47:56.200Z,6.6
2023-04-17T05:49:12.393Z,6.5
2023-04-17T05:50:28.587Z,6.5
2023-04-17T05:51:44.794Z,6.6
2023-04-17T05:52:42.973Z,6.5
2023-04-17T05:54:17.000Z,6.5
2023-04-17T05:55:33.000Z,6.6
2023-04-17T05:56:49.553Z,6.6
2023-04-17T05:57:46.762Z,6.5
2023-04-17T05:59:20.000Z,6.6
2023-04-17T06:00:37.000Z,6.5
2023-04-17T06:01:53.342Z,6.5
2023-04-17T06:02:51.535Z,6.6
2023-04-17T06:04:25.728Z,6.5
2023-04-17T06:05:41.000Z,6.5
2023-04-17T06:06:40.114Z,6.6
2023-04-17T06:08:14.000Z,6.5
2023-04-17T06:09:30.000Z,6.6
2023-04-17T06:10:28.694Z,6.5
2023-04-17T06:12:02.901Z,6.6
2023-04-17T06:13:18.116Z,6.6
2023-04-17T06:14:34.309Z,6.6
2023-04-17T06:15:32.502Z,6.6
2023-04-17T06:17:05.722Z,6.6
2023-04-17T06:18:20.000Z,6.5
2023-04-17T06:19:36.000Z,6.6
2023-04-17T06:20:52.000Z,6.5
2023-04-17T06:22:07.000Z,6.5
2023-04-17T06:23:05.747Z,6.6
2023-04-17T06:24:39.953Z,6.6
2023-04-17T06:25:56.134Z,6.6
2023-04-17T06:27:12.327Z,6.6
2023-04-17T06:28:10.520Z,6.6
2023-04-17T06:29:44.716Z,6.7
2023-04-17T06:31:00.916Z,6.7
2023-04-17T06:32:17.102Z,6.7
2023-04-17T06:33:33.303Z,6.6
2023-04-17T06:34:49.496Z,6.6
2023-04-17T06:35:47.680Z,6.6
2023-04-17T06:37:21.000Z,6.7
2023-04-17T06:38:38.000Z,6.7
2023-04-17T06:39:54.000Z,6.8
2023-04-17T06:41:10.000Z,6.9
2023-04-17T06:42:26.645Z,6.9
2023-04-17T06:43:24.838Z,6.9
2023-04-17T06:44:59.000Z,7
2023-04-17T06:46:15.226Z,7
2023-04-17T06:47:31.000Z,7.1
2023-04-17T06:48:47.613Z,7.1
2023-04-17T06:50:02.834Z,7.1
2023-04-17T06:51:18.000Z,7.1
2023-04-17T06:52:34.000Z,7.2
2023-04-17T06:53:50.429Z,7.1
2023-04-17T06:55:06.000Z,7.1
2023-04-17T06:56:22.824Z,7.2
2023-04-17T06:57:39.000Z,7.2
2023-04-17T06:58:55.000Z,7.2
2023-04-17T07:00:11.405Z,7.3
2023-04-17T07:01:09.589Z,7.3
2023-04-17T07:02:43.000Z,7.2
2023-04-17T07:03:59.000Z,7.1
2023-04-17T07:05:42.000Z,7.1
2023-04-17T07:06:32.362Z,7.1
2023-04-17T07:07:29.572Z,7.2
2023-04-17T07:08:45.766Z,7.2
2023-04-17T07:10:19.000Z,7.1
2023-04-17T07:11:36.152Z,7
2023-04-17T07:12:52.359Z,7.1
2023-04-17T07:14:08.000Z,7.1
2023-04-17T07:15:06.731Z,7.2
2023-04-17T07:16:40.000Z,7.2
2023-04-17T07:17:57.000Z,7.3
2023-04-17T07:19:13.312Z,7.3
2023-04-17T07:20:29.000Z,7.4
2023-04-17T07:21:45.709Z,7.4
2023-04-17T07:23:00.933Z,7.5
2023-04-17T07:24:16.129Z,7.5
2023-04-17T07:25:31.000Z,7.5
2023-04-17T07:26:47.000Z,7.4
2023-04-17T07:28:03.000Z,7.3
2023-04-17T07:29:19.000Z,7.3
2023-04-17T07:30:36.133Z,7.3
2023-04-17T07:31:51.000Z,7.2
2023-04-17T07:33:07.000Z,7.2
2023-04-17T07:34:05.726Z,7.2
2023-04-17T07:35:39.000Z,7.2
2023-04-17T07:36:56.000Z,7.2
2023-04-17T07:38:12.308Z,7.3
2023-04-17T07:39:10.499Z,7.4
2023-04-17T07:40:44.692Z,7.5
2023-04-17T07:42:00.000Z,7.5
2023-04-17T07:43:17.000Z,7.5
2023-04-17T07:44:15.271Z,7.5
2023-04-17T07:45:30.481Z,7.5
2023-04-17T07:46:46.674Z,7.5
2023-04-17T07:48:20.881Z,7.6
2023-04-17T07:49:37.000Z,7.6
2023-04-17T07:50:53.000Z,7.5
2023-04-17T07:52:09.452Z,7.6
2023-04-17T07:53:25.640Z,7.5
2023-04-17T07:54:41.000Z,7.5
2023-04-17T07:55:58.000Z,7.6
2023-04-17T07:56:56.220Z,7.6
2023-04-17T07:58:56.000Z,7.6
2023-04-17T07:59:28.607Z,7.7
2023-04-17T08:01:01.000Z,7.7
2023-04-17T08:02:18.000Z,7.8
2023-04-17T08:03:34.000Z,7.8
2023-04-17T08:04:32.407Z,7.9
2023-04-17T08:06:05.632Z,7.9
2023-04-17T08:07:20.000Z,8
2023-04-17T08:08:19.030Z,8
2023-04-17T08:09:53.237Z,8
2023-04-17T08:11:09.000Z,8
2023-04-17T08:12:07.610Z,8
2023-04-17T08:13:23.803Z,8
2023-04-17T08:14:39.023Z,8.1
2023-04-17T08:16:12.000Z,8.2
2023-04-17T08:17:10.426Z,8.2
2023-04-17T08:18:44.000Z,8.3
2023-04-17T08:20:00.812Z,8.3
2023-04-17T08:21:17.005Z,8.4
2023-04-17T08:22:15.199Z,8.5
2023-04-17T08:23:49.409Z,8.5
2023-04-17T08:25:05.596Z,8.5
2023-04-17T08:26:21.000Z,8.5
2023-04-17T08:27:37.976Z,8.6
2023-04-17T08:28:54.000Z,8.8
2023-04-17T08:29:52.358Z,8.8
2023-04-17T08:31:26.000Z,8.9
2023-04-17T08:32:42.000Z,8.9
2023-04-17T08:33:58.937Z,9
2023-04-17T08:34:57.130Z,9.1
2023-04-17T08:36:30.353Z,9.2
2023-04-17T08:37:46.000Z,9.3
2023-04-17T08:39:02.727Z,9.4
2023-04-17T08:40:18.000Z,9.4
2023-04-17T08:41:35.123Z,9.2
2023-04-17T08:42:32.330Z,9.1
2023-04-17T08:44:05.000Z,9.1
2023-04-17T08:45:21.732Z,9
2023-04-17T08:46:37.926Z,9.1
2023-04-17T08:47:36.119Z,9.2
2023-04-17T08:49:10.000Z,9.2
2023-04-17T08:50:08.653Z,9.2
2023-04-17T08:51:42.000Z,9.2
2023-04-17T08:52:59.171Z,9.3
2023-04-17T08:54:15.000Z,9.4
2023-04-17T08:55:13.546Z,9.4
2023-04-17T08:56:47.000Z,9.4
2023-04-17T08:58:03.000Z,9.4
2023-04-17T08:59:20.000Z,9.5
2023-04-17T09:00:18.319Z,9.4
2023-04-17T09:01:34.512Z,9.4
2023-04-17T09:03:08.000Z,9.5
2023-04-17T09:04:24.000Z,9.6
2023-04-17T09:05:23.091Z,9.7
2023-04-17T09:06:57.000Z,9.8
2023-04-17T09:08:13.487Z,9.9
2023-04-17T09:09:28.697Z,9.9
2023-04-17T09:10:44.000Z,9.9
2023-04-17T09:12:01.000Z,10
2023-04-17T09:13:17.000Z,10
2023-04-17T09:14:33.000Z,10
2023-04-17T09:15:31.651Z,10.1
2023-04-17T09:17:04.877Z,10.1
2023-04-17T09:18:02.080Z,10
2023-04-17T09:19:36.000Z,10
2023-04-17T09:20:52.470Z,9.9
2023-04-17T09:22:08.675Z,9.8
2023-04-17T09:23:24.000Z,9.9
2023-04-17T09:24:41.000Z,10
2023-04-17T09:25:57.248Z,10
2023-04-17T09:27:13.000Z,10
2023-04-17T09:28:29.625Z,10
2023-04-17T09:30:11.000Z,10
2023-04-17T09:30:44.010Z,9.9
2023-04-17T09:32:18.219Z,9.9
2023-04-17T09:33:34.000Z,10
2023-04-17T09:34:50.000Z,10.1
2023-04-17T09:36:06.000Z,10.2
2023-04-17T09:37:22.000Z,10.2
2023-04-17T09:38:38.184Z,10.2
2023-04-17T09:39:54.000Z,10.1
2023-04-17T09:41:10.574Z,10.1
2023-04-17T09:42:26.000Z,10.2
2023-04-17T09:43:42.960Z,10.4
2023-04-17T09:44:58.000Z,10.5
2023-04-17T09:45:56.369Z,10.5
2023-04-17T09:47:30.564Z,10.5
2023-04-17T09:48:45.000Z,10.5
2023-04-17T09:50:01.965Z,10.4
2023-04-17T09:51:18.158Z,10.4
2023-04-17T09:52:34.000Z,10.5
2023-04-17T09:53:32.544Z,10.5
2023-04-17T09:55:06.000Z,10.4
2023-04-17T09:56:22.000Z,10.3
2023-04-17T09:57:39.000Z,10.1
2023-04-17T09:58:37.317Z,10.1
2023-04-17T10:00:11.517Z,10.1
2023-04-17T10:01:27.000Z,10.2
2023-04-17T10:02:43.910Z,10.2
2023-04-17T10:03:42.089Z,10.3
2023-04-17T10:05:16.282Z,10.3
2023-04-17T10:06:32.000Z,10.4
2023-04-17T10:07:47.000Z,10.6
2023-04-17T10:08:45.878Z,10.8
2023-04-17T10:10:20.073Z,11
2023-04-17T10:11:18.264Z,11.2
2023-04-17T10:12:51.000Z,11.3
2023-04-17T10:14:07.000Z,11.4
2023-04-17T10:15:23.879Z,11.4
2023-04-17T10:16:40.217Z,11.2
2023-04-17T10:17:55.000Z,11.2
2023-04-17T10:18:53.613Z,11.1
2023-04-17T10:20:27.000Z,11
2023-04-17T10:21:25.999Z,11
2023-04-17T10:23:00.000Z,11.1
2023-04-17T10:24:16.387Z,11.1
2023-04-17T10:25:32.580Z,11
2023-04-17T10:26:48.000Z,11.1
2023-04-17T10:28:04.000Z,11.1
2023-04-17T10:29:21.000Z,11.1
2023-04-17T10:30:37.358Z,11
2023-04-17T10:31:52.567Z,11.1
2023-04-17T10:33:08.773Z,11.1
2023-04-17T10:34:24.000Z,11.2
2023-04-17T10:35:41.000Z,11.2
2023-04-17T10:36:39.341Z,11.2
2023-04-17T10:38:13.546Z,11.2
2023-04-17T10:39:29.728Z,11.3
2023-04-17T10:40:27.921Z,11.3
2023-04-17T10:42:02.111Z,11.1
2023-04-17T10:43:18.000Z,10.6
2023-04-17T10:44:16.501Z,10.5
2023-04-17T10:45:50.695Z,10.7
2023-04-17T10:46:49.034Z,10.9
2023-04-17T10:48:23.343Z,11
2023-04-17T10:49:39.000Z,11
2023-04-17T10:50:55.734Z,10.9
2023-04-17T10:52:11.000Z,10.8
2023-04-17T10:53:28.000Z,10.7
2023-04-17T10:54:44.000Z,10.9
2023-04-17T10:56:00.000Z,11.1
2023-04-17T10:56:58.700Z,11.2
2023-04-17T10:58:32.893Z,11.2
2023-04-17T10:59:31.086Z,11.2
2023-04-17T11:01:05.279Z,11.1
2023-04-17T11:02:03.472Z,10.9
2023-04-17T11:03:19.665Z,10.8
2023-04-17T11:04:53.000Z,10.7
2023-04-17T11:06:10.000Z,10.4
2023-04-17T11:07:26.000Z,10.4
2023-04-17T11:08:24.437Z,10.3
2023-04-17T11:09:40.630Z,10.3
2023-04-17T11:11:14.000Z,10.3
2023-04-17T11:12:31.016Z,10.5
2023-04-17T11:13:47.209Z,10.6
2023-04-17T11:14:45.402Z,10.7
2023-04-17T11:16:18.000Z,10.7
2023-04-17T11:17:34.815Z,10.8
2023-04-17T11:18:33.009Z,10.9
2023-04-17T11:19:48.228Z,11.2
2023-04-17T11:21:22.000Z,11.4
2023-04-17T11:22:20.614Z,11.6
2023-04-17T11:23:53.829Z,11.7
2023-04-17T11:24:51.043Z,11.6
2023-04-17T11:26:24.000Z,11.7
2023-04-17T11:27:22.457Z,11.7
2023-04-17T11:28:55.000Z,11.6
2023-04-17T11:30:11.871Z,11.6
2023-04-17T11:31:28.060Z,11.5
2023-04-17T11:32:25.274Z,11.4
2023-04-17T11:33:59.458Z,11.5
2023-04-17T11:34:57.661Z,11.6
2023-04-17T11:36:31.855Z,11.7
2023-04-17T11:37:48.031Z,11.8
2023-04-17T11:39:04.000Z,11.9
2023-04-17T11:40:20.420Z,11.7
2023-04-17T11:41:36.622Z,11.8
2023-04-17T11:42:52.000Z,12
2023-04-17T11:44:09.000Z,12.2
2023-04-17T11:45:07.208Z,12.4
2023-04-17T11:46:41.394Z,12.4
2023-04-17T11:47:57.587Z,12.3
2023-04-17T11:49:13.000Z,12.3
2023-04-17T11:50:29.000Z,12.3
2023-04-17T11:51:46.000Z,12.3
2023-04-17T11:53:02.357Z,12.3
2023-04-17T11:54:18.686Z,12.3
2023-04-17T11:55:34.000Z,12.5
2023-04-17T11:56:51.070Z,12.4
2023-04-17T11:57:49.263Z,12.4
2023-04-17T11:59:23.452Z,12.3
2023-04-17T12:00:20.676Z,12.3
2023-04-17T12:02:20.000Z,12.4
2023-04-17T12:02:53.063Z,12.4
2023-04-17T12:04:26.000Z,12.5
2023-04-17T12:05:42.000Z,12.5
2023-04-17T12:06:58.000Z,12.3
2023-04-17T12:08:14.000Z,12
2023-04-17T12:09:31.057Z,11.7
2023-04-17T12:10:47.239Z,11.6
2023-04-17T12:12:02.460Z,11.5
2023-04-17T12:13:00.653Z,11.5
2023-04-17T12:14:34.841Z,11.6
2023-04-17T12:15:51.023Z,11.7
2023-04-17T12:16:49.233Z,11.6
2023-04-17T12:18:23.409Z,11.6
2023-04-17T12:19:39.606Z,11.6
2023-04-17T12:20:55.000Z,11.4
2023-04-17T12:22:12.007Z,11.2
2023-04-17T12:23:28.201Z,11.1
2023-04-17T12:24:44.386Z,11
2023-04-17T12:26:00.569Z,10.9
2023-04-17T12:26:58.781Z,10.7
2023-04-17T12:28:32.000Z,10.6
2023-04-17T12:29:49.000Z,10.5
2023-04-17T12:31:05.360Z,10.4
2023-04-17T12:32:21.546Z,10.4
2023-04-17T12:33:37.000Z,10.5
2023-04-17T12:34:35.940Z,10.5
2023-04-17T12:35:51.159Z,10.4
2023-04-17T12:37:25.000Z,10.3
2023-04-17T12:38:41.000Z,10.3
2023-04-17T12:39:57.733Z,10.2
2023-04-17T12:41:13.931Z,10.2
2023-04-17T12:42:30.000Z,10.1
2023-04-17T12:43:28.317Z,10
2023-04-17T12:46:17.000Z,10
2023-04-17T12:47:33.912Z,10
2023-04-17T12:48:32.105Z,10.1
2023-04-17T12:49:48.297Z,10.1
2023-04-17T12:51:04.490Z,10.1
2023-04-17T12:52:38.000Z,10.2
2023-04-17T12:53:36.876Z,10.1
2023-04-17T12:55:11.052Z,10
2023-04-17T12:56:27.260Z,10
2023-04-17T12:57:43.448Z,9.9
2023-04-17T12:58:59.649Z,9.9
2023-04-17T13:00:15.000Z,10
2023-04-17T13:01:14.035Z,10
2023-04-17T13:02:48.000Z,10.1
2023-04-17T13:04:04.411Z,10.1
2023-04-17T13:05:19.637Z,10.1
2023-04-17T13:06:17.834Z,10
2023-04-17T13:07:51.053Z,9.9
2023-04-17T13:09:07.228Z,10
2023-04-17T13:10:22.451Z,9.9
2023-04-17T13:11:37.000Z,10
2023-04-17T13:12:53.000Z,10.1
2023-04-17T13:13:52.061Z,10.1
2023-04-17T13:15:26.000Z,10.1
2023-04-17T13:16:24.447Z,10
2023-04-17T13:17:58.000Z,10
2023-04-17T13:19:14.000Z,10
2023-04-17T13:20:31.000Z,10
2023-04-17T13:21:47.210Z,10.1
2023-04-17T13:23:03.000Z,10
2023-04-17T13:24:19.606Z,9.9
2023-04-17T13:25:35.000Z,9.9
2023-04-17T13:26:51.992Z,10
2023-04-17T13:28:08.172Z,10
2023-04-17T13:29:23.388Z,10
2023-04-17T13:30:39.582Z,10
2023-04-17T13:31:55.778Z,10
2023-04-17T13:33:11.957Z,9.9
2023-04-17T13:34:10.167Z,9.9
2023-04-17T13:35:44.359Z,9.9
2023-04-17T13:37:00.000Z,9.8
2023-04-17T13:38:16.000Z,9.8
2023-04-17T13:39:32.000Z,9.8
2023-04-17T13:40:49.131Z,9.8
2023-04-17T13:41:47.324Z,9.8
2023-04-17T13:43:21.000Z,9.8
2023-04-17T13:44:37.850Z,9.8
2023-04-17T13:45:54.000Z,9.8
2023-04-17T13:47:10.000Z,9.8
2023-04-17T13:48:26.000Z,9.8
2023-04-17T13:49:42.630Z,9.7
2023-04-17T13:50:40.822Z,9.7
2023-04-17T13:52:14.030Z,9.7
2023-04-17T13:53:29.000Z,9.6
2023-04-17T13:54:45.000Z,9.6
2023-04-17T13:56:01.639Z,9.6
2023-04-17T13:57:17.000Z,9.6
2023-04-17T13:58:16.025Z,9.6
2023-04-17T13:59:50.201Z,9.6
2023-04-17T14:01:06.000Z,9.5
2023-04-17T14:02:22.604Z,9.6
2023-04-17T14:03:38.784Z,9.5
2023-04-17T14:04:54.990Z,9.5
2023-04-17T14:06:11.000Z,9.5
2023-04-17T14:07:27.378Z,9.5
2023-04-17T14:08:43.000Z,9.5
2023-04-17T14:09:59.762Z,9.5
2023-04-17T14:11:15.955Z,9.5
2023-04-17T14:12:13.164Z,9.5
2023-04-17T14:13:47.359Z,9.5
2023-04-17T14:15:03.000Z,9.5
2023-04-17T14:16:19.000Z,9.5
2023-04-17T14:18:02.000Z,9.5
2023-04-17T14:18:52.129Z,9.5
2023-04-17T14:19:50.322Z,9.4
2023-04-17T14:21:23.526Z,9.3
2023-04-17T14:22:20.752Z,9.3
2023-04-17T14:23:54.000Z,9.2
2023-04-17T14:25:11.126Z,9.2
2023-04-17T14:26:26.351Z,9.1
2023-04-17T14:27:41.000Z,9
2023-04-17T14:28:39.766Z,9.1
2023-04-17T14:29:55.960Z,9.1
2023-04-17T14:31:30.155Z,9.1
2023-04-17T14:32:28.350Z,9
2023-04-17T14:34:02.539Z,9
2023-04-17T14:35:00.739Z,9
2023-04-17T14:36:34.000Z,9
2023-04-17T14:37:33.129Z,9
2023-04-17T14:39:07.000Z,9.1
2023-04-17T14:40:23.000Z,9.1
2023-04-17T14:41:39.000Z,9
2023-04-17T14:42:55.900Z,9.1
2023-04-17T14:44:11.000Z,9.1
2023-04-17T14:45:27.308Z,9.1
2023-04-17T14:46:43.000Z,9.1
2023-04-17T14:47:59.817Z,9
2023-04-17T14:49:16.011Z,9
2023-04-17T14:50:32.000Z,9
2023-04-17T14:51:48.000Z,9
2023-04-17T14:53:04.000Z,9
2023-04-17T14:54:20.000Z,8.9
2023-04-17T14:55:19.002Z,8.9
2023-04-17T14:56:53.195Z,8.9
2023-04-17T14:58:08.404Z,8.9
2023-04-17T14:59:23.630Z,8.9
2023-04-17T15:00:39.809Z,8.9
2023-04-17T15:01:56.000Z,9
2023-04-17T15:02:54.362Z,8.9
2023-04-17T15:04:28.545Z,8.9
2023-04-17T15:05:43.000Z,9
2023-04-17T15:07:26.000Z,9
2023-04-17T15:08:16.149Z,9
2023-04-17T15:09:32.000Z,9
2023-04-17T15:10:48.000Z,9
2023-04-17T15:12:04.000Z,9
2023-04-17T15:13:02.941Z,9
2023-04-17T15:14:37.000Z,9
2023-04-17T15:15:53.318Z,8.9
2023-04-17T15:17:09.000Z,9
2023-04-17T15:18:25.722Z,9
2023-04-17T15:19:41.907Z,9
2023-04-17T15:20:40.112Z,9
2023-04-17T15:22:13.321Z,8.9
2023-04-17T15:23:11.518Z,8.8
2023-04-17T15:24:45.000Z,8.8
2023-04-17T15:26:01.000Z,8.8
2023-04-17T15:27:18.095Z,8.8
2023-04-17T15:28:33.325Z,8.8
2023-04-17T15:29:49.513Z,8.8
2023-04-17T15:31:05.716Z,8.8
2023-04-17T15:32:21.000Z,8.8
2023-04-17T15:33:20.106Z,8.8
2023-04-17T15:34:54.000Z,8.7
2023-04-17T15:36:10.489Z,8.7
2023-04-17T15:37:26.833Z,8.6
2023-04-17T15:38:43.030Z,8.6
2023-04-17T15:39:58.246Z,8.6
2023-04-17T15:40:56.440Z,8.6
2023-04-17T15:42:30.000Z,8.5
2023-04-17T15:43:46.000Z,8.6
2023-04-17T15:45:03.000Z,8.6
2023-04-17T15:46:01.221Z,8.6
2023-04-17T15:47:35.000Z,8.6
2023-04-17T15:48:51.608Z,8.6
2023-04-17T15:50:07.795Z,8.6
2023-04-17T15:51:24.002Z,8.6
2023-04-17T15:52:40.000Z,8.6
2023-04-17T15:53:38.392Z,8.6
2023-04-17T15:55:12.000Z,8.6
2023-04-17T15:56:28.783Z,8.6
2023-04-17T15:57:44.977Z,8.5
2023-04-17T15:59:01.173Z,8.5
2023-04-17T16:00:17.352Z,8.5
2023-04-17T16:01:32.575Z,8.5
2023-04-17T16:02:48.760Z,8.5
2023-04-17T16:04:03.997Z,8.5
2023-04-17T16:05:20.188Z,8.5
2023-04-17T16:06:35.404Z,8.5
2023-04-17T16:07:51.591Z,8.5
2023-04-17T16:09:07.000Z,8.5
2023-04-17T16:10:24.000Z,8.4
2023-04-17T16:11:40.000Z,8.5
2023-04-17T16:12:56.367Z,8.4
2023-04-17T16:14:12.000Z,8.4
2023-04-17T16:15:28.000Z,8.4
2023-04-17T16:16:44.000Z,8.4
2023-04-17T16:18:01.000Z,8.3
2023-04-17T16:19:17.342Z,8.3
2023-04-17T16:20:33.000Z,8.3
2023-04-17T16:21:49.000Z,8.3
2023-04-17T16:23:05.941Z,8.2
2023-04-17T16:24:22.127Z,8.2
2023-04-17T16:25:38.000Z,8.2
2023-04-17T16:26:54.513Z,8.2
2023-04-17T16:28:09.731Z,8.2
2023-04-17T16:29:25.917Z,8.2
2023-04-17T16:30:41.000Z,8.2
2023-04-17T16:31:56.353Z,8.2
2023-04-17T16:33:11.000Z,8.1
2023-04-17T16:34:27.000Z,8.1
2023-04-17T16:35:43.978Z,8.1
2023-04-17T16:36:42.173Z,8.1
2023-04-17T16:38:15.384Z,8.1
2023-04-17T16:39:30.603Z,8.1
2023-04-17T16:40:46.802Z,8.1
2023-04-17T16:42:02.994Z,8.1
2023-04-17T16:43:19.192Z,8.1
2023-04-17T16:44:35.000Z,8.1
2023-04-17T16:45:51.577Z,8.1
2023-04-17T16:47:07.778Z,8.1
2023-04-17T16:48:23.000Z,8.1
2023-04-17T16:49:40.156Z,8.1
2023-04-17T16:50:56.358Z,8.1
2023-04-17T16:52:12.563Z,8.1
2023-04-17T16:53:28.749Z,8.1
2023-04-17T16:54:44.939Z,8.1
2023-04-17T16:56:00.000Z,8.1
2023-04-17T16:57:16.344Z,8.1
2023-04-17T16:58:32.549Z,8.1
2023-04-17T16:59:48.746Z,8.1
2023-04-17T17:01:04.941Z,8.1
2023-04-17T17:02:21.136Z,8.1
2023-04-17T17:03:37.000Z,8.1
2023-04-17T17:04:53.522Z,8.1
2023-04-17T17:06:08.743Z,8.1
2023-04-17T17:07:23.945Z,8.1
2023-04-17T17:08:40.000Z,8.1
2023-04-17T17:09:56.343Z,8.1
2023-04-17T17:11:12.000Z,8.1
2023-04-17T17:12:28.741Z,8.1
2023-04-17T17:13:44.940Z,8.1
2023-04-17T17:15:01.000Z,8.1
2023-04-17T17:16:17.327Z,8.1
2023-04-17T17:17:33.000Z,8.1
2023-04-17T17:18:49.000Z,8.1
2023-04-17T17:20:05.912Z,8
2023-04-17T17:21:22.092Z,8.1
2023-04-17T17:22:38.303Z,8.1
2023-04-17T17:23:54.498Z,8.1
2023-04-17T17:25:10.693Z,8.1
2023-04-17T17:26:26.000Z,8.1
2023-04-17T17:27:43.077Z,8.1
2023-04-17T17:28:59.400Z,8.1
2023-04-17T17:30:15.599Z,8.1